• Join FlightAware (Why Join?)
  • Login
  • US Flag 
02:57AM EDT


 

Airport Tracker/Info


-or-


 

Live Flight TrackerFlight Track Log ✈ XOJ552 ✈ 30-Jan-2014 ✈ KBNA - KMWA

Flight Track Log - Related Links

Times and Time Zones

All times are in EST time to prevent confusion due to time zone crossing. See the XOJ552 flight status page for this flight to view local times or setup timezone preferences in your user account.

Time Position Orientation Groundspeed Altitude Reporting Facility
EST Latitude Longitude Course Direction KTS MPH feet Rate Location/Type
02:31PM 36.0833 -86.7167 238° Southwest 201 231 3,000  Level Nashville TRACON
02:32PM 36.0833 -86.8000 270° West 261 300 4,000 900 Climbing Nashville TRACON
02:33PM 36.1000 -86.8833 284° West 258 297 4,800 2,880 Climbing Nashville TRACON
02:34PM 36.1778 -86.9417 329° Northwest 261 300 10,700 4,140 Climbing Memphis Center
02:35PM 36.2461 -86.9950 328° Northwest 278 320 14,500 2,460 Climbing Memphis Center
02:36PM 36.3150 -87.0767 316° Northwest 333 383 15,800 660 Climbing Memphis Center
02:37PM 36.3847 -87.1681 313° West 352 405 15,900  Climbing Memphis Center
02:38PM 36.4528 -87.2578 313° West 354 407 15,900  Level Memphis Center
02:39PM 36.5203 -87.3456 314° West 350 403 15,900  Level Memphis Center
02:40PM 36.5886 -87.4361 313° West 352 405 15,900  Level Memphis Center
02:41PM 36.6717 -87.5461 313° West 365 420 15,900  Level Memphis Center
02:42PM 36.7422 -87.6383 314° West 365 420 15,900 60 Level Memphis Center
02:43PM 36.8106 -87.7289 313° West 359 413 16,100 60 Climbing Memphis Center
02:44PM 36.8786 -87.8208 313° West 356 410 16,100  Level Memphis Center
02:45PM 36.9483 -87.9128 314° West 359 413 16,100  Level Memphis Center
02:46PM 37.0161 -88.0058 312° West 359 413 16,100  Level Memphis Center
02:47PM 37.0961 -88.1114 314° West 364 419 16,100 -180 Level Memphis Center
02:48PM 37.1650 -88.2047 313° West 365 420 15,800 -900 Descending Memphis Center
02:49PM 37.2325 -88.2956 313° West 359 413 14,300 -1,740 Descending Memphis Center
02:50PM 37.2961 -88.3819 313° West 346 398 12,300 -1,980 Descending Memphis Center
02:51PM 37.3583 -88.4653 313° West 333 383 10,300 -1,500 Descending Memphis Center
02:53PM 37.4114 -88.5364 313° West 287 330 9,300 -1,380 Descending Memphis Center
02:54PM 37.4672 -88.6142 312° West 254 292 7,500 -1,860 Descending Memphis Center
02:55PM 37.5131 -88.6775 312° West 248 285 5,500 -1,680 Descending Memphis Center
02:56PM 37.5608 -88.7436 312° West 249 287 4,100 -840 Descending Memphis Center
02:57PM 37.6089 -88.8083 313° West 251 289 3,800 -300 Descending Memphis Center
02:58PM 37.6569 -88.8742 313° West 252 290 3,600 -240 Descending Memphis Center
03:00PM 37.7500 -89.0000 322° Northwest  Level FlightAware Approximate
03:07PM 37.7550 -89.0111 322° Northwest  Level Estimated
03:08PM 37.7550 -89.0111 322° Northwest  Level Estimated
03:09PM 37.7550 -89.0111 322° Northwest  Level Estimated